Terminal Aerodrome Forecast
Issued by NWS

Home | Current Version | Previous Version | Graphics & Text | Print | Product List | Glossary On
Versions: 1 2 3 4 5 6 7 8 9 10 11 12 13 14 15 16 17 18 19 20 21 22
259
FTUS43 KMPX 191837 AAA
TAFAXN
TAF AMD
KAXN 191837Z 1919/2018 03017G25KT 6SM -SN BKN020 OVC030
     FM192200 04013G21KT 2SM -SN OVC020
     FM200300 04013G19KT 4SM -SN OVC015
     FM200700 05009KT 1 1/2SM -SN BR OVC015
      TEMPO 2007/2011 1/2SM SN OVC010
     FM201200 02010KT 2SM -SN OVC015
     FM201400 36009KT 4SM -SN OVC010=

USA.gov is the U.S. government's official web portal to all federal, state and local government web resources and services.